Time;durP1;ratioP1;P1;durP2;ratioP2;P2;SDS_P1;SDS_P2;PMS_P1;PMS_P2;Temp;Humidity;BMP_temperature;BMP_pressure;BME280_temperature;BME280_humidity;BME280_pressure;Samples;Min_cycle;Max_cycle;Signal;HPM_P1;HPM_P2
2020/12/09 00:01:29;;;;;;;20.23;12.02;;;;;;;3.98;96.68;97021.34;4988197;28;20661;-59
2020/12/09 00:03:56;;;;;;;18.88;11.65;;;;;;;4.56;95.99;97088.00;4986058;28;20044;-61
2020/12/09 00:06:22;;;;;;;16.40;10.32;;;;;;;4.43;96.42;97089.03;4987500;28;20034;-61
2020/12/09 00:08:47;;;;;;;17.38;10.52;;;;;;;4.26;98.20;97083.63;4987805;28;20122;-59
2020/12/09 00:11:13;;;;;;;20.67;10.63;;;;;;;4.45;98.56;97095.00;4987258;28;20497;-59
2020/12/09 00:13:38;;;;;;;52.72;26.58;;;;;;;4.54;96.36;97103.19;4985846;28;20042;-60
2020/12/09 00:16:04;;;;;;;21.27;12.15;;;;;;;4.16;97.77;97111.41;4987168;28;20042;-59
2020/12/09 00:18:30;;;;;;;26.95;15.23;;;;;;;4.03;98.79;97101.44;4987489;28;20046;-59
2020/12/09 00:20:55;;;;;;;23.25;12.90;;;;;;;3.51;98.12;97060.81;4987451;28;20505;-59
2020/12/09 00:23:21;;;;;;;26.05;14.45;;;;;;;3.95;99.08;97110.47;4985682;28;20441;-61
2020/12/09 00:25:46;;;;;;;27.48;14.90;;;;;;;3.62;100.00;97106.69;4987091;28;20097;-60
2020/12/09 00:28:12;;;;;;;30.17;15.88;;;;;;;3.43;100.00;97047.94;4987224;28;20328;-59
2020/12/09 00:30:37;;;;;;;26.40;14.48;;;;;;;3.80;100.00;97094.56;4985808;28;20629;-60
2020/12/09 00:33:03;;;;;;;27.08;16.05;;;;;;;3.71;100.00;97099.28;4987100;28;20047;-60
2020/12/09 00:35:28;;;;;;;27.67;16.48;;;;;;;3.37;100.00;97093.81;4985230;28;20034;-60
2020/12/09 00:37:54;;;;;;;28.23;16.90;;;;;;;3.67;100.00;97125.69;4987423;28;20520;-60
2020/12/09 00:40:19;;;;;;;35.40;18.17;;;;;;;3.88;100.00;97103.91;4987298;28;20471;-59
2020/12/09 00:42:45;;;;;;;30.88;16.52;;;;;;;3.98;99.63;97103.56;4986832;28;20030;-58
2020/12/09 00:45:10;;;;;;;31.35;16.35;;;;;;;4.05;99.75;97099.19;4987040;28;20200;-59
2020/12/09 00:47:40;;;;;;;31.02;16.13;;;;;;;3.99;99.76;97081.31;4985205;28;20022;-60
2020/12/09 00:52:37;;;;;;;25.70;14.27;;;;;;;4.17;98.61;97107.50;4986687;28;20117;-59
2020/12/09 00:55:04;;;;;;;26.40;16.27;;;;;;;3.78;98.59;97033.03;4984937;28;20062;-60
2020/12/09 00:57:29;;;;;;;30.52;16.17;;;;;;;4.13;97.85;97079.16;4985514;28;20089;-59
2020/12/09 00:59:54;;;;;;;29.60;16.13;;;;;;;3.99;97.10;97045.69;4985419;28;20042;-60
2020/12/09 01:02:20;;;;;;;30.42;16.20;;;;;;;3.59;95.88;96970.41;4984851;28;20030;-60
2020/12/09 01:04:49;;;;;;;27.83;15.98;;;;;;;4.44;96.74;97101.59;4984769;28;20077;-59
2020/12/09 01:07:16;;;;;;;34.33;18.42;;;;;;;4.49;96.23;97109.66;4986370;28;20026;-58
2020/12/09 01:09:41;;;;;;;37.47;18.33;;;;;;;4.30;95.17;97046.19;4985132;28;20048;-60
2020/12/09 01:12:06;;;;;;;35.60;18.85;;;;;;;4.66;95.83;97104.06;4984533;28;20432;-60
2020/12/09 01:14:32;;;;;;;33.05;18.70;;;;;;;4.46;93.72;97049.97;4986440;28;20513;-59
2020/12/09 01:17:00;;;;;;;37.03;18.48;;;;;;;4.50;94.62;97100.28;4986206;28;20019;-59
2020/12/09 01:19:26;;;;;;;29.50;17.23;;;;;;;4.53;94.90;97077.72;4984666;28;20456;-58
2020/12/09 01:21:51;;;;;;;33.90;18.40;;;;;;;4.90;93.28;97091.69;4986164;28;20257;-59
2020/12/09 01:24:16;;;;;;;34.80;18.65;;;;;;;4.81;94.54;97090.91;4984881;28;20496;-59
2020/12/09 01:26:43;;;;;;;34.97;18.73;;;;;;;4.73;94.67;97075.34;4986076;28;20045;-61
2020/12/09 01:29:09;;;;;;;30.92;17.83;;;;;;;4.87;94.23;97089.63;4986451;28;20062;-59
2020/12/09 01:31:34;;;;;;;27.98;16.92;;;;;;;4.35;96.38;97086.31;4984342;28;20081;-59
2020/12/09 01:33:59;;;;;;;31.10;18.08;;;;;;;3.92;99.46;97091.97;4984765;28;20053;-61
2020/12/09 01:36:25;;;;;;;35.80;19.48;;;;;;;4.24;98.45;97105.09;4984022;28;20035;-60
2020/12/09 01:38:51;;;;;;;28.35;17.35;;;;;;;4.09;98.93;97093.84;4986162;28;20042;-59
2020/12/09 01:41:22;;;;;;;34.17;18.40;;;;;;;3.87;100.00;97083.91;4985862;28;20169;-59
2020/12/09 01:43:49;;;;;;;33.13;17.77;;;;;;;3.91;100.00;97082.13;4984534;28;20034;-59
2020/12/09 01:46:29;;;;;;;34.42;18.83;;;;;;;3.50;100.00;97081.91;4984229;28;20033;-58
2020/12/09 01:48:55;;;;;;;34.63;18.40;;;;;;;3.20;100.00;97052.78;4984420;28;20592;-59
2020/12/09 01:51:25;;;;;;;38.25;20.33;;;;;;;3.49;100.00;97080.28;4984284;28;20038;-60
2020/12/09 01:53:55;;;;;;;34.45;18.33;;;;;;;3.75;100.00;97083.78;4984648;28;20045;-58
2020/12/09 01:56:21;;;;;;;37.38;20.75;;;;;;;3.90;100.00;97080.53;4984225;28;20142;-60
2020/12/09 01:58:51;;;;;;;34.80;19.13;;;;;;;3.93;100.00;97079.88;4984232;28;20066;-59
2020/12/09 02:01:18;;;;;;;33.10;19.67;;;;;;;4.06;100.00;97089.03;4984607;28;20492;-59
2020/12/09 02:03:45;;;;;;;35.88;19.17;;;;;;;4.23;100.00;97083.47;4983923;28;20057;-59
2020/12/09 02:06:10;;;;;;;30.00;18.65;;;;;;;4.41;99.28;97099.53;4985436;28;20034;-59
2020/12/09 02:08:36;;;;;;;28.48;17.75;;;;;;;3.40;99.69;96988.34;4984220;28;20985;-59
2020/12/09 02:11:03;;;;;;;34.63;19.92;;;;;;;3.94;100.00;97076.00;4983576;28;20034;-58
2020/12/09 02:13:30;;;;;;;33.88;18.42;;;;;;;3.73;100.00;97058.63;4984087;28;20480;-58
2020/12/09 02:15:58;;;;;;;30.63;17.67;;;;;;;3.91;100.00;97084.88;4985575;28;20073;-58
2020/12/09 02:18:23;;;;;;;33.10;17.40;;;;;;;3.91;100.00;97075.84;4983423;28;20049;-58
2020/12/09 02:20:49;;;;;;;34.10;19.67;;;;;;;3.73;100.00;97069.59;4983427;28;20038;-58
2020/12/09 02:23:14;;;;;;;37.78;19.67;;;;;;;3.10;100.00;96968.25;4985606;28;20088;-61
2020/12/09 02:25:40;;;;;;;38.33;20.20;;;;;;;3.29;100.00;97059.03;4985140;28;20022;-58
2020/12/09 02:28:05;;;;;;;32.55;17.65;;;;;;;3.58;100.00;97072.88;4983618;28;20034;-59
2020/12/09 02:30:31;;;;;;;38.25;19.42;;;;;;;3.92;100.00;97083.72;4985715;28;20034;-60
2020/12/09 02:32:56;;;;;;;32.92;16.90;;;;;;;3.52;100.00;97040.50;4984963;28;20591;-59
2020/12/09 02:35:23;;;;;;;34.50;18.80;;;;;;;3.66;100.00;97080.25;4983180;28;20049;-59
2020/12/09 02:37:48;;;;;;;34.08;17.88;;;;;;;3.33;100.00;97073.69;4983741;28;20080;-60
2020/12/09 02:40:14;;;;;;;34.22;16.83;;;;;;;3.29;100.00;97069.97;4983873;28;20039;-58
2020/12/09 02:42:39;;;;;;;32.35;16.48;;;;;;;3.64;100.00;97071.56;4983594;28;20026;-59
2020/12/09 02:45:05;;;;;;;33.92;18.08;;;;;;;3.93;100.00;97074.41;4984590;28;20062;-60
2020/12/09 02:47:30;;;;;;;32.05;17.08;;;;;;;3.95;100.00;97050.19;4985271;28;20023;-59
2020/12/09 02:49:56;;;;;;;26.90;15.32;;;;;;;4.27;100.00;97059.75;4989117;28;20612;-59
2020/12/09 02:52:21;;;;;;;30.17;15.55;;;;;;;3.73;100.00;96962.78;4988870;28;20464;-59
2020/12/09 02:54:47;;;;;;;33.45;17.42;;;;;;;4.57;100.00;97073.16;4987636;28;20046;-59
2020/12/09 02:57:12;;;;;;;42.92;19.98;;;;;;;4.57;100.00;97056.69;4988826;28;20042;-59
2020/12/09 02:59:38;;;;;;;35.20;19.33;;;;;;;4.82;100.00;97073.34;4987373;28;20138;-59
2020/12/09 03:02:03;;;;;;;29.45;16.45;;;;;;;4.90;98.30;97080.72;4988604;28;20026;-59
2020/12/09 03:04:29;;;;;;;36.80;21.48;;;;;;;4.50;98.57;97022.72;4987647;28;20042;-58
2020/12/09 03:06:54;;;;;;;38.47;22.40;;;;;;;4.96;98.00;97093.91;4987688;28;20061;-58
2020/12/09 03:09:20;;;;;;;36.15;20.10;;;;;;;4.71;97.78;97039.19;4987783;28;20042;-60
2020/12/09 03:11:45;;;;;;;36.17;19.08;;;;;;;5.03;97.35;97101.59;4987081;28;20026;-59
2020/12/09 03:14:10;;;;;;;32.63;18.10;;;;;;;4.02;97.47;96938.16;4987002;28;20038;-59
2020/12/09 03:16:36;;;;;;;31.35;16.75;;;;;;;4.78;94.87;97020.25;4986862;28;20026;-60
2020/12/09 03:19:01;;;;;;;40.83;19.98;;;;;;;5.24;94.40;97096.94;4988797;28;20034;-59
2020/12/09 03:21:30;;;;;;;43.22;21.45;;;;;;;5.26;93.79;97100.97;4988008;28;20053;-58
2020/12/09 03:23:56;;;;;;;44.78;21.77;;;;;;;5.00;93.52;97072.06;4988581;28;20514;-59
2020/12/09 03:26:22;;;;;;;35.92;20.38;;;;;;;5.19;93.63;97110.84;4986812;28;20046;-61
2020/12/09 03:28:47;;;;;;;37.70;20.65;;;;;;;5.20;94.51;97107.00;4986716;28;20038;-60
2020/12/09 03:31:13;;;;;;;48.60;24.13;;;;;;;4.89;94.63;97062.63;4987984;28;20413;-59
2020/12/09 03:33:38;;;;;;;40.38;19.77;;;;;;;4.90;93.13;97053.28;4986823;28;20042;-59
2020/12/09 03:36:04;;;;;;;32.92;17.75;;;;;;;5.27;93.02;97096.25;4986523;28;20034;-59
2020/12/09 03:38:30;;;;;;;29.75;16.65;;;;;;;5.20;93.67;97101.50;4988272;28;20513;-60
2020/12/09 03:40:55;;;;;;;34.15;19.63;;;;;;;5.16;93.65;97095.88;4986475;28;20237;-59
2020/12/09 03:43:21;;;;;;;29.73;18.08;;;;;;;5.08;93.67;97082.19;4987962;28;20034;-59
2020/12/09 03:45:46;;;;;;;30.92;16.77;;;;;;;4.33;93.51;96968.75;4986484;28;20035;-61
2020/12/09 03:48:12;;;;;;;32.20;17.35;;;;;;;4.99;93.92;97090.50;4988130;28;20034;-60
2020/12/09 03:50:37;;;;;;;27.98;17.45;;;;;;;4.56;94.30;97027.66;4986426;28;20033;-60
2020/12/09 03:53:03;;;;;;;29.30;16.75;;;;;;;5.01;94.75;97103.91;4988007;28;20417;-59
2020/12/09 03:55:28;;;;;;;32.60;17.98;;;;;;;4.69;95.58;97059.50;4987743;28;20394;-60
2020/12/09 03:57:56;;;;;;;36.75;20.88;;;;;;;4.23;94.83;96985.59;4986549;28;20038;-59
2020/12/09 04:00:22;;;;;;;38.55;22.15;;;;;;;4.80;94.36;97067.38;4987090;28;20030;-60
2020/12/09 04:02:47;;;;;;;36.22;21.35;;;;;;;3.04;94.40;96789.81;4986131;28;20034;-61
2020/12/09 04:05:13;;;;;;;37.90;22.77;;;;;;;4.58;93.79;97014.41;4987712;28;20034;-60
2020/12/09 04:07:38;;;;;;;43.58;22.85;;;;;;;4.87;93.31;97053.94;4986062;28;20041;-59
2020/12/09 04:10:05;;;;;;;41.58;23.30;;;;;;;4.50;94.40;96998.81;4987907;28;20612;-60
2020/12/09 04:12:30;;;;;;;41.45;25.15;;;;;;;4.81;93.84;97036.03;4985914;28;20042;-58
2020/12/09 04:14:56;;;;;;;50.55;29.25;;;;;;;5.24;94.08;97097.75;4987569;28;20041;-58
2020/12/09 04:17:22;;;;;;;59.03;28.92;;;;;;;4.94;92.50;97015.78;4987390;28;20531;-59
2020/12/09 04:19:48;;;;;;;58.63;30.85;;;;;;;3.67;91.63;96796.22;4985868;28;20057;-59
2020/12/09 04:22:15;;;;;;;67.57;33.60;;;;;;;4.64;91.55;96951.94;4986678;28;20516;-59
2020/12/09 04:24:40;;;;;;;55.40;29.98;;;;;;;5.60;92.16;97105.34;4987458;28;20077;-59
2020/12/09 04:27:06;;;;;;;47.47;29.05;;;;;;;5.67;91.63;97094.63;4987119;28;20045;-59
2020/12/09 04:29:31;;;;;;;52.67;28.60;;;;;;;5.60;92.11;97091.63;4987463;28;20117;-58
2020/12/09 04:31:57;;;;;;;39.58;22.58;;;;;;;5.66;92.34;97104.00;4985983;28;20034;-60
2020/12/09 04:34:23;;;;;;;36.58;22.77;;;;;;;5.39;92.78;97071.63;4985587;28;20057;-59
2020/12/09 04:36:49;;;;;;;33.00;20.13;;;;;;;5.39;92.22;97090.84;4987022;28;20034;-58
2020/12/09 04:39:16;;;;;;;32.53;18.77;;;;;;;5.58;92.43;97113.16;4987334;28;20119;-57
2020/12/09 04:41:41;;;;;;;29.80;18.35;;;;;;;5.05;93.34;97058.16;4986668;28;20645;-59
2020/12/09 04:44:07;;;;;;;34.00;20.00;;;;;;;4.89;94.01;97035.19;4985356;28;20046;-59
2020/12/09 04:46:36;;;;;;;25.77;17.00;;;;;;;5.46;94.08;97110.31;4986700;28;20030;-59
2020/12/09 04:49:07;;;;;;;30.35;17.33;;;;;;;5.42;93.35;97112.94;4985493;28;20046;-59
2020/12/09 04:52:00;;;;;;;26.67;16.90;;;;;;;5.38;94.04;97119.44;4986882;28;20541;-60
2020/12/09 04:54:47;;;;;;;28.77;18.60;;;;;;;5.33;95.61;97111.38;4985587;28;20057;-59
2020/12/09 04:57:24;;;;;;;30.23;18.48;;;;;;;5.32;95.64;97109.78;4985333;28;20424;-59
2020/12/09 04:59:59;;;;;;;32.92;18.27;;;;;;;4.68;93.41;96986.59;4987159;28;20108;-60
2020/12/09 05:02:42;;;;;;;28.27;17.90;;;;;;;5.29;93.79;97104.97;4985023;28;20471;-58
2020/12/09 05:05:10;;;;;;;32.17;19.35;;;;;;;5.30;94.87;97112.06;4985032;28;20137;-59
2020/12/09 05:07:37;;;;;;;73.57;42.38;;;;;;;5.23;93.71;97092.59;4985138;28;20104;-60
2020/12/09 05:10:06;;;;;;;36.65;22.00;;;;;;;5.43;93.58;97113.75;4984502;28;20228;-58
2020/12/09 05:12:44;;;;;;;165.35;90.95;;;;;;;5.40;93.42;97120.72;4984916;28;20034;-58
2020/12/09 05:15:19;;;;;;;147.88;76.68;;;;;;;5.46;92.39;97104.84;4984592;28;20038;-59
2020/12/09 05:18:00;;;;;;;32.90;21.08;;;;;;;5.16;93.34;97122.50;4984920;28;20037;-60
2020/12/09 05:20:32;;;;;;;35.80;19.30;;;;;;;3.73;96.56;96971.00;4984409;28;20056;-60
2020/12/09 05:22:58;;;;;;;33.72;19.38;;;;;;;4.75;95.77;97136.16;4986195;28;20217;-58
2020/12/09 05:25:25;;;;;;;34.20;19.42;;;;;;;3.46;99.13;97036.31;4984622;28;20042;-57
2020/12/09 05:27:52;;;;;;;34.75;20.58;;;;;;;4.19;100.00;97121.69;4986124;28;20038;-57
2020/12/09 05:30:47;;;;;;;34.28;20.58;;;;;;;4.43;100.00;97121.13;4984708;28;20530;-57
2020/12/09 05:33:30;;;;;;;33.50;19.25;;;;;;;4.19;100.00;97124.44;4984426;28;20513;-57
2020/12/09 05:36:00;;;;;;;34.10;19.75;;;;;;;4.39;100.00;97126.47;4985932;28;20516;-59
2020/12/09 05:38:26;;;;;;;36.35;19.98;;;;;;;4.25;100.00;97075.75;4984441;28;20046;-58
2020/12/09 05:40:53;;;;;;;36.15;19.85;;;;;;;4.63;99.70;97167.84;4985899;28;20512;-58
2020/12/09 05:43:19;;;;;;;37.85;19.48;;;;;;;4.83;99.53;97129.81;4984589;28;20081;-58
2020/12/09 05:45:45;;;;;;;31.80;18.67;;;;;;;4.93;98.53;97132.19;4984481;28;20532;-58
2020/12/09 05:48:21;;;;;;;38.47;19.95;;;;;;;3.29;100.00;96889.34;4985658;28;20030;-57
2020/12/09 05:50:53;;;;;;;36.47;20.88;;;;;;;4.77;100.00;97120.16;4985729;28;20038;-57
2020/12/09 05:53:21;;;;;;;41.00;21.40;;;;;;;4.68;98.33;97067.28;4985824;28;20113;-58
2020/12/09 05:55:48;;;;;;;46.08;22.77;;;;;;;4.92;98.74;97092.97;4984207;28;20042;-59
2020/12/09 05:58:21;;;;;;;37.97;21.30;;;;;;;5.25;97.15;97120.53;4984096;28;20096;-58
2020/12/09 06:01:10;;;;;;;37.50;22.13;;;;;;;5.22;97.08;97099.19;4984455;28;20097;-59
2020/12/09 06:03:38;;;;;;;40.00;23.83;;;;;;;5.23;97.54;97111.81;4984056;28;20043;-60
2020/12/09 06:06:09;;;;;;;42.72;24.15;;;;;;;5.23;97.23;97098.09;4983971;28;20085;-59
2020/12/09 06:08:40;;;;;;;44.65;24.42;;;;;;;5.26;97.51;97091.91;4985680;28;20054;-59
2020/12/09 06:11:05;;;;;;;41.63;23.95;;;;;;;5.34;95.61;97108.31;4983683;28;20088;-59
2020/12/09 06:13:32;;;;;;;72.07;40.03;;;;;;;5.42;96.15;97123.13;4984068;28;20046;-58
2020/12/09 06:15:59;;;;;;;74.80;36.22;;;;;;;5.49;96.08;97126.13;4985298;28;20048;-58
2020/12/09 06:18:29;;;;;;;70.15;32.97;;;;;;;5.58;95.64;97135.13;4983699;28;20046;-58
2020/12/09 06:20:54;;;;;;;79.72;32.53;;;;;;;5.09;93.98;97040.69;4983797;28;20070;-58
2020/12/09 06:23:20;;;;;;;60.05;32.33;;;;;;;5.58;95.12;97135.13;4985296;28;20074;-58
2020/12/09 06:25:49;;;;;;;50.60;28.17;;;;;;;5.57;94.52;97139.00;4985337;28;20037;-58
2020/12/09 06:28:22;;;;;;;40.70;25.83;;;;;;;5.47;93.65;97109.22;4983860;28;20038;-58
2020/12/09 06:30:49;;;;;;;37.22;21.83;;;;;;;4.39;97.05;97060.66;4985326;28;20043;-58
2020/12/09 06:33:33;;;;;;;38.15;22.00;;;;;;;3.84;100.00;97016.06;4983725;28;20050;-58
2020/12/09 06:36:27;;;;;;;41.70;24.17;;;;;;;4.14;100.00;97135.59;4983504;28;20038;-59
2020/12/09 06:39:05;;;;;;;43.08;24.35;;;;;;;4.05;100.00;97137.53;4983823;28;20598;-57
2020/12/09 06:41:40;;;;;;;44.80;23.35;;;;;;;3.98;100.00;97130.97;4983067;28;20484;-58
2020/12/09 06:44:09;;;;;;;43.15;25.65;;;;;;;3.84;100.00;97142.09;4985156;28;20034;-59
2020/12/09 06:46:35;;;;;;;52.13;27.45;;;;;;;4.00;100.00;97148.69;4983172;28;20030;-58
2020/12/09 06:49:01;;;;;;;46.28;25.58;;;;;;;4.21;100.00;97152.34;4985081;28;20601;-58
2020/12/09 06:51:40;;;;;;;43.97;25.95;;;;;;;4.55;100.00;97152.22;4984936;28;20065;-59
2020/12/09 06:54:13;;;;;;;39.88;22.90;;;;;;;4.12;100.00;97143.34;4983553;28;20034;-59
2020/12/09 06:56:39;;;;;;;42.72;24.17;;;;;;;3.34;100.00;97038.91;4981619;28;20354;-59
2020/12/09 06:59:27;;;;;;;43.60;24.38;;;;;;;4.10;100.00;97145.59;4983131;28;20038;-59
2020/12/09 07:02:06;;;;;;;41.95;24.52;;;;;;;4.07;100.00;97129.00;4984881;28;20038;-60
2020/12/09 07:04:53;;;;;;;48.80;25.73;;;;;;;4.23;100.00;97149.28;4981596;28;20934;-60
2020/12/09 07:07:29;;;;;;;45.15;25.42;;;;;;;4.18;100.00;97079.00;4983670;28;20739;-60
2020/12/09 07:09:55;;;;;;;43.65;24.38;;;;;;;4.95;100.00;97149.16;4985509;28;20042;-61
2020/12/09 07:12:22;;;;;;;37.67;24.02;;;;;;;4.83;100.00;97160.00;4984574;28;20057;-58
2020/12/09 07:14:49;;;;;;;48.53;26.17;;;;;;;4.93;100.00;97134.94;4984745;28;20039;-59
2020/12/09 07:17:20;;;;;;;36.42;23.70;;;;;;;4.91;100.00;97138.00;4984779;28;20025;-61
2020/12/09 07:19:45;;;;;;;46.38;27.10;;;;;;;4.98;100.00;97140.25;4984858;28;20494;-60
2020/12/09 07:22:11;;;;;;;42.67;27.13;;;;;;;5.37;100.00;97134.31;4984104;28;20038;-61
2020/12/09 07:24:36;;;;;;;39.28;23.95;;;;;;;5.46;98.14;97133.13;4984937;28;20044;-60
2020/12/09 07:27:02;;;;;;;38.08;20.10;;;;;;;4.86;100.00;97134.63;4984607;28;20044;-61
2020/12/09 07:29:28;;;;;;;36.45;22.10;;;;;;;4.34;100.00;97080.06;4985210;28;20046;-61
2020/12/09 07:32:02;;;;;;;35.63;21.05;;;;;;;4.92;100.00;97120.41;4982560;28;20034;-60
2020/12/09 07:34:27;;;;;;;36.80;23.02;;;;;;;4.43;100.00;97017.75;4986160;28;20426;-60
2020/12/09 07:36:54;;;;;;;41.70;26.10;;;;;;;5.36;98.65;97116.25;4986500;28;20452;-61
2020/12/09 07:39:32;;;;;;;49.88;31.50;;;;;;;5.54;98.26;97128.69;4986758;28;20038;-61
2020/12/09 07:41:59;;;;;;;51.50;30.98;;;;;;;5.75;97.63;97123.97;4986448;28;20145;-60
2020/12/09 07:44:25;;;;;;;45.88;27.77;;;;;;;5.72;97.22;97127.41;4988503;28;20042;-59
2020/12/09 07:46:58;;;;;;;50.03;29.08;;;;;;;5.92;97.13;97130.16;4987973;28;20112;-61
2020/12/09 07:49:25;;;;;;;45.15;27.85;;;;;;;5.93;95.79;97130.94;4987119;28;20038;-59
2020/12/09 07:51:53;;;;;;;50.42;29.25;;;;;;;6.12;96.44;97144.97;4986727;28;20529;-60
2020/12/09 07:54:20;;;;;;;62.92;34.08;;;;;;;6.23;96.55;97135.16;4986879;28;20049;-59
2020/12/09 07:56:46;;;;;;;50.78;28.65;;;;;;;6.45;95.13;97140.25;4988009;28;20034;-59
2020/12/09 07:59:14;;;;;;;47.55;27.70;;;;;;;6.45;92.82;97140.25;4988432;28;20109;-61
2020/12/09 08:01:40;;;;;;;43.95;26.77;;;;;;;6.09;93.42;97088.72;4986331;28;20442;-60
2020/12/09 08:04:06;;;;;;;41.25;24.08;;;;;;;6.23;94.39;97128.88;4988113;28;20041;-61
2020/12/09 08:06:34;;;;;;;44.85;25.88;;;;;;;6.51;93.13;97152.66;4985286;28;20041;-62
2020/12/09 08:09:15;;;;;;;52.33;30.20;;;;;;;6.73;91.76;97155.00;4986912;28;20512;-61
2020/12/09 08:11:44;;;;;;;52.53;30.92;;;;;;;6.66;91.01;97160.25;4987170;28;20041;-61
2020/12/09 08:14:13;;;;;;;45.05;26.27;;;;;;;6.64;91.57;97157.03;4985425;28;20428;-63
2020/12/09 08:16:39;;;;;;;38.72;23.73;;;;;;;6.10;93.54;97130.78;4986592;28;20528;-61
2020/12/09 08:19:10;;;;;;;37.22;21.40;;;;;;;6.05;94.95;97140.03;4989306;28;20125;-60
2020/12/09 08:21:37;;;;;;;36.97;22.58;;;;;;;5.79;98.85;97146.88;4994007;28;20049;-61
2020/12/09 08:24:12;;;;;;;38.83;22.00;;;;;;;5.96;96.34;97135.75;4986955;28;20042;-61
2020/12/09 08:26:39;;;;;;;40.95;22.30;;;;;;;6.18;95.58;97132.63;4987386;28;20061;-61
2020/12/09 08:29:05;;;;;;;42.92;23.80;;;;;;;5.91;97.87;97123.03;4985413;28;20043;-60
2020/12/09 08:31:31;;;;;;;31.90;20.25;;;;;;;5.97;96.42;97126.38;4986547;28;20092;-62
2020/12/09 08:33:57;;;;;;;25.95;16.77;;;;;;;6.13;93.81;97124.59;4986609;28;20038;-61
2020/12/09 08:36:23;;;;;;;23.35;14.52;;;;;;;5.53;96.06;97138.84;4986776;28;20525;-61
2020/12/09 08:38:51;;;;;;;21.88;13.00;;;;;;;5.30;96.43;97142.28;5004189;28;20038;-59
2020/12/09 08:41:37;;;;;;;30.60;14.73;;;;;;;5.72;96.38;97141.16;4993125;28;20034;-59
2020/12/09 08:44:07;;;;;;;22.00;13.88;;;;;;;5.98;95.69;97130.72;4982088;28;20477;-60
2020/12/09 08:46:33;;;;;;;26.38;14.88;;;;;;;6.06;94.28;97129.84;4967571;28;20503;-59
2020/12/09 08:48:59;;;;;;;25.23;14.50;;;;;;;5.88;93.76;97101.72;4967945;28;20478;-60
2020/12/09 08:51:25;;;;;;;28.30;15.48;;;;;;;6.18;93.22;97127.13;4968374;28;20042;-60
2020/12/09 08:53:51;;;;;;;27.02;14.80;;;;;;;6.24;91.79;97128.53;4985439;28;20496;-60
2020/12/09 08:56:24;;;;;;;31.60;19.02;;;;;;;6.44;91.33;97135.91;4986515;28;20121;-62
2020/12/09 08:58:49;;;;;;;28.73;17.20;;;;;;;6.46;89.72;97128.13;4985511;28;20141;-60
2020/12/09 09:01:14;;;;;;;22.85;13.27;;;;;;;6.25;90.15;97126.56;4985907;28;20632;-62
2020/12/09 09:03:41;;;;;;;26.48;14.38;;;;;;;6.34;90.28;97122.56;4986756;28;20045;-63
2020/12/09 09:06:06;;;;;;;24.95;15.00;;;;;;;5.86;89.21;97061.97;4985848;28;20070;-59
2020/12/09 09:08:32;;;;;;;22.23;12.73;;;;;;;5.89;90.05;97124.53;4984414;28;20074;-61
2020/12/09 09:10:57;;;;;;;23.98;13.57;;;;;;;5.59;93.04;97125.75;4984395;28;20038;-61
2020/12/09 09:13:23;;;;;;;22.77;13.55;;;;;;;5.82;93.05;97124.25;4986259;28;20437;-62
2020/12/09 09:15:48;;;;;;;20.98;13.35;;;;;;;5.50;93.02;97133.25;4985861;28;20437;-60
2020/12/09 09:18:14;;;;;;;18.67;11.85;;;;;;;5.31;93.95;97119.19;4986547;28;20034;-60
2020/12/09 09:20:39;;;;;;;21.85;13.15;;;;;;;4.92;95.43;97045.50;4985986;28;20116;-61
2020/12/09 09:23:05;;;;;;;24.52;12.82;;;;;;;5.28;94.26;97053.94;4974232;28;20035;-61
2020/12/09 09:25:32;;;;;;;22.58;13.38;;;;;;;5.36;95.72;97114.28;4966639;28;20035;-62
2020/12/09 09:27:58;;;;;;;28.58;15.38;;;;;;;5.31;97.86;97106.22;4966775;28;20510;-62
2020/12/09 09:30:24;;;;;;;24.02;13.20;;;;;;;5.39;97.68;97115.56;4971866;28;20030;-60
2020/12/09 09:32:49;;;;;;;26.60;14.68;;;;;;;5.21;99.61;97103.09;4984011;28;20026;-61
2020/12/09 09:35:16;;;;;;;24.58;14.13;;;;;;;4.41;100.00;97038.41;4986141;28;20064;-60
2020/12/09 09:37:42;;;;;;;34.78;16.08;;;;;;;5.07;100.00;97102.56;4985874;28;20034;-61
2020/12/09 09:40:08;;;;;;;23.40;12.98;;;;;;;5.12;100.00;97088.63;4984079;28;20402;-61
2020/12/09 09:42:33;;;;;;;25.67;14.65;;;;;;;4.94;100.00;97087.13;4983809;28;20030;-59
2020/12/09 09:45:01;;;;;;;22.75;14.13;;;;;;;4.50;100.00;97033.69;4985581;28;20034;-61
2020/12/09 09:47:27;;;;;;;24.95;13.63;;;;;;;5.25;100.00;97082.09;4984432;28;20030;-58
2020/12/09 09:49:52;;;;;;;27.02;14.25;;;;;;;4.99;100.00;97084.19;4985930;28;20108;-61
2020/12/09 09:52:17;;;;;;;24.65;13.75;;;;;;;5.06;100.00;97079.78;4985587;28;20018;-62
2020/12/09 09:54:43;;;;;;;29.00;14.52;;;;;;;4.78;100.00;97073.19;4985417;28;20482;-61
2020/12/09 09:57:09;;;;;;;26.90;14.88;;;;;;;4.64;100.00;97083.59;4984906;28;20113;-61
2020/12/09 09:59:34;;;;;;;29.20;16.42;;;;;;;4.73;100.00;97080.84;4983673;28;20041;-60
2020/12/09 10:01:59;;;;;;;32.33;17.38;;;;;;;5.14;100.00;97064.41;4984893;28;20061;-60
2020/12/09 10:04:25;;;;;;;31.33;16.67;;;;;;;5.41;100.00;97064.66;4985469;28;20045;-60
2020/12/09 10:06:50;;;;;;;34.40;18.20;;;;;;;5.54;100.00;97051.75;4984910;28;20417;-60
2020/12/09 10:09:16;;;;;;;40.80;24.40;;;;;;;5.59;100.00;97054.31;4984204;28;20146;-62
2020/12/09 10:11:42;;;;;;;58.08;31.45;;;;;;;5.62;100.00;97059.13;4984853;28;20034;-61
2020/12/09 10:14:08;;;;;;;36.33;20.63;;;;;;;5.70;99.16;97055.50;4983884;28;20583;-61
2020/12/09 10:16:35;;;;;;;41.15;25.02;;;;;;;5.71;99.05;97044.16;4983666;28;20113;-61
2020/12/09 10:19:00;;;;;;;50.83;25.55;;;;;;;5.53;100.00;97025.44;4985769;28;20334;-59
2020/12/09 10:21:28;;;;;;;40.25;21.55;;;;;;;5.81;99.70;97034.69;4984982;28;20056;-61
2020/12/09 10:23:54;;;;;;;34.42;19.67;;;;;;;5.52;99.87;96993.59;4985218;28;20525;-60
2020/12/09 10:26:30;;;;;;;31.33;16.88;;;;;;;5.70;100.00;97036.25;4985192;28;20026;-58
2020/12/09 10:28:56;;;;;;;36.67;21.52;;;;;;;5.73;100.00;97032.81;4985439;28;20054;-60
2020/12/09 10:31:21;;;;;;;27.70;17.00;;;;;;;5.71;100.00;97021.34;4984825;28;20026;-61
2020/12/09 10:33:47;;;;;;;35.97;17.52;;;;;;;5.70;100.00;97022.50;4985340;28;20113;-63
2020/12/09 10:36:14;;;;;;;28.35;15.77;;;;;;;5.43;100.00;97023.09;4983925;28;20117;-61
2020/12/09 10:38:39;;;;;;;28.98;15.35;;;;;;;5.07;100.00;97022.94;4982365;28;20038;-60
2020/12/09 10:41:09;;;;;;;30.02;16.30;;;;;;;5.18;100.00;97016.72;4985196;28;20042;-62
2020/12/09 10:43:34;;;;;;;32.72;18.00;;;;;;;5.03;100.00;96969.84;4984949;28;20539;-62
2020/12/09 10:46:00;;;;;;;38.67;21.27;;;;;;;5.18;100.00;96966.50;4996021;28;20037;-62
2020/12/09 10:48:25;;;;;;;30.33;18.38;;;;;;;5.38;100.00;97004.09;4991487;28;20049;-62
2020/12/09 10:50:50;;;;;;;33.85;16.63;;;;;;;5.17;100.00;96957.44;4984152;28;20034;-60
2020/12/09 10:53:16;;;;;;;27.38;14.93;;;;;;;5.45;100.00;96993.38;4984658;28;20512;-61
2020/12/09 10:55:41;;;;;;;31.80;17.23;;;;;;;5.43;100.00;96973.66;4983358;28;20030;-60
2020/12/09 10:58:07;;;;;;;28.88;15.50;;;;;;;5.24;100.00;96940.44;4984692;28;20035;-59
2020/12/09 11:00:32;;;;;;;27.63;15.02;;;;;;;5.54;100.00;96991.31;4985022;28;20039;-62
2020/12/09 11:02:58;;;;;;;45.47;22.13;;;;;;;5.47;100.00;96991.09;4980294;28;20027;-59
2020/12/09 11:05:23;;;;;;;41.53;20.15;;;;;;;5.18;100.00;96941.78;4985175;28;20031;-61
2020/12/09 11:07:49;;;;;;;27.63;15.65;;;;;;;5.61;100.00;96975.09;4985221;28;20034;-62
2020/12/09 11:10:14;;;;;;;40.85;21.08;;;;;;;5.62;100.00;96979.44;4987453;28;20034;-61
2020/12/09 11:12:39;;;;;;;33.45;18.60;;;;;;;5.16;100.00;96897.38;4988869;28;20038;-62
2020/12/09 11:15:05;;;;;;;33.65;19.10;;;;;;;5.20;100.00;96906.56;4988143;28;20033;-60
2020/12/09 11:17:31;;;;;;;34.60;19.58;;;;;;;5.77;100.00;96973.31;4988644;28;20036;-61
2020/12/09 11:19:56;;;;;;;28.30;13.77;;;;;;;5.69;100.00;96976.94;4988767;28;20581;-63
2020/12/09 11:22:21;;;;;;;31.13;14.88;;;;;;;4.85;100.00;96891.56;4987510;28;20045;-61
2020/12/09 11:24:48;;;;;;;25.55;12.65;;;;;;;5.46;100.00;96978.47;4987027;28;20046;-61
2020/12/09 11:27:13;;;;;;;32.22;17.38;;;;;;;5.43;100.00;96974.47;4987713;28;20081;-60